Time;durP1;ratioP1;P1;durP2;ratioP2;P2;SDS_P1;SDS_P2;PMS_P1;PMS_P2;Temp;Humidity;BMP_temperature;BMP_pressure;BME280_temperature;BME280_humidity;BME280_pressure;Samples;Min_cycle;Max_cycle;Signal;HPM_P1;HPM_P2
2021/03/19 00:02:00;;;;;;;9.25;6.22;;;1.90;99.90;;;;;;5093783;28;20085;-67
2021/03/19 00:04:26;;;;;;;8.77;6.70;;;1.70;99.90;;;;;;5092850;28;20079;-67
2021/03/19 00:06:51;;;;;;;11.93;5.93;;;1.60;99.90;;;;;;5093867;28;20044;-68
2021/03/19 00:09:17;;;;;;;11.52;6.45;;;1.50;99.90;;;;;;5093679;28;20027;-65
2021/03/19 00:11:43;;;;;;;12.20;6.93;;;1.50;99.90;;;;;;5094250;28;20035;-68
2021/03/19 00:14:10;;;;;;;12.55;6.75;;;1.40;99.90;;;;;;5094506;28;20154;-66
2021/03/19 00:16:37;;;;;;;13.20;6.80;;;1.40;99.90;;;;;;5092550;28;20025;-68
2021/03/19 00:19:04;;;;;;;10.55;6.70;;;1.30;99.90;;;;;;5094998;28;20488;-64
2021/03/19 00:21:30;;;;;;;11.90;6.20;;;1.30;99.90;;;;;;5094584;28;20712;-66
2021/03/19 00:23:56;;;;;;;12.30;7.47;;;1.20;99.90;;;;;;5094394;28;20559;-63
2021/03/19 00:26:23;;;;;;;16.63;7.13;;;1.20;99.90;;;;;;5075509;28;20461;-67
2021/03/19 00:28:48;;;;;;;10.88;6.95;;;1.20;99.90;;;;;;5094755;28;20567;-63
2021/03/19 00:31:15;;;;;;;16.88;7.22;;;1.10;99.90;;;;;;5092393;28;20036;-67
2021/03/19 00:33:40;;;;;;;16.13;7.65;;;1.10;99.90;;;;;;5096117;28;20038;-67
2021/03/19 00:36:06;;;;;;;10.68;7.47;;;1.10;99.90;;;;;;5075543;28;20067;-67
2021/03/19 00:38:33;;;;;;;9.50;7.03;;;1.10;99.90;;;;;;5093104;28;20523;-66
2021/03/19 00:40:58;;;;;;;14.00;8.20;;;1.00;99.90;;;;;;5074718;28;20028;-68
2021/03/19 00:43:24;;;;;;;16.05;8.32;;;1.10;99.90;;;;;;5093485;28;20020;-68
2021/03/19 00:45:50;;;;;;;13.57;8.00;;;1.00;99.90;;;;;;5095414;28;20115;-66
2021/03/19 00:48:16;;;;;;;15.43;8.43;;;1.00;99.90;;;;;;5094083;28;20028;-69
2021/03/19 00:50:43;;;;;;;12.70;8.13;;;1.00;99.90;;;;;;5092801;28;20024;-68
2021/03/19 00:53:10;;;;;;;14.00;8.52;;;1.00;99.90;;;;;;5092902;28;20024;-66
2021/03/19 00:55:36;;;;;;;14.77;8.68;;;0.90;99.90;;;;;;5093114;28;20031;-65
2021/03/19 00:58:03;;;;;;;17.48;9.20;;;0.90;99.90;;;;;;5074824;28;20066;-68
2021/03/19 01:00:31;;;;;;;17.60;9.10;;;0.90;99.90;;;;;;5093862;28;20024;-67
2021/03/19 01:02:57;;;;;;;14.25;9.35;;;0.90;99.90;;;;;;5092961;28;20038;-68
2021/03/19 01:05:34;;;;;;;14.65;9.43;;;0.80;99.90;;;;;;5078981;28;20115;-67
2021/03/19 01:08:03;;;;;;;15.40;9.98;;;0.80;99.90;;;;;;5091686;28;20038;-67
2021/03/19 01:10:34;;;;;;;19.60;11.17;;;0.80;99.90;;;;;;5092883;28;20053;-67
2021/03/19 01:13:00;;;;;;;17.13;11.05;;;0.70;99.90;;;;;;5091152;28;20291;-67
2021/03/19 01:15:27;;;;;;;19.60;11.05;;;0.70;99.90;;;;;;5074192;28;20032;-69
2021/03/19 01:17:53;;;;;;;16.48;10.88;;;0.70;99.90;;;;;;5092650;28;20078;-67
2021/03/19 01:20:20;;;;;;;17.10;11.27;;;0.60;99.90;;;;;;5096842;28;20028;-66
2021/03/19 01:22:46;;;;;;;16.40;10.95;;;0.60;99.90;;;;;;5093663;28;20582;-68
2021/03/19 01:25:17;;;;;;;19.80;11.48;;;0.60;99.90;;;;;;5094362;28;20043;-67
2021/03/19 01:27:44;;;;;;;16.98;11.38;;;0.50;99.90;;;;;;5090559;28;20065;-67
2021/03/19 01:30:14;;;;;;;20.33;12.27;;;0.50;99.90;;;;;;5092469;28;20044;-68
2021/03/19 01:32:40;;;;;;;20.58;12.65;;;0.50;99.90;;;;;;5090985;28;20032;-67
2021/03/19 01:35:06;;;;;;;19.00;13.05;;;0.50;99.90;;;;;;5094489;28;20035;-67
2021/03/19 01:37:32;;;;;;;19.55;12.15;;;0.40;99.90;;;;;;5074856;28;20127;-68
2021/03/19 01:39:58;;;;;;;27.73;13.02;;;0.40;99.90;;;;;;5090116;28;20076;-64
2021/03/19 01:42:24;;;;;;;28.23;13.88;;;0.40;99.90;;;;;;5092231;28;20463;-68
2021/03/19 01:45:07;;;;;;;21.42;12.48;;;0.40;99.90;;;;;;5094361;28;20049;-65
2021/03/19 01:48:10;;;;;;;23.05;12.43;;;0.40;99.90;;;;;;5094646;28;20116;-67
2021/03/19 01:51:13;;;;;;;19.70;12.73;;;0.40;99.90;;;;;;5092919;28;20020;-67
2021/03/19 01:54:16;;;;;;;23.40;13.82;;;0.40;99.90;;;;;;5091449;28;20024;-67
2021/03/19 01:57:19;;;;;;;23.83;13.98;;;0.30;99.90;;;;;;5089125;28;20075;-67
2021/03/19 02:00:23;;;;;;;20.33;11.68;;;0.30;99.90;;;;;;5089712;28;20039;-67
2021/03/19 02:03:26;;;;;;;23.02;11.45;;;0.30;99.90;;;;;;5104832;28;20525;-67
2021/03/19 02:06:29;;;;;;;18.73;11.95;;;0.30;99.90;;;;;;5112113;28;20088;-66
2021/03/19 02:09:32;;;;;;;19.85;12.00;;;0.20;99.90;;;;;;5100344;28;20461;-65
2021/03/19 02:12:35;;;;;;;18.08;11.25;;;0.20;99.90;;;;;;5092299;28;20028;-64
2021/03/19 02:15:38;;;;;;;18.52;11.80;;;0.20;99.90;;;;;;5094136;28;20028;-65
2021/03/19 02:18:41;;;;;;;18.42;11.45;;;0.10;99.90;;;;;;5099123;28;20031;-64
2021/03/19 02:21:43;;;;;;;25.38;12.68;;;0.10;99.90;;;;;;5092782;28;20112;-65
2021/03/19 02:24:47;;;;;;;21.60;13.00;;;0.00;99.90;;;;;;5100675;28;20453;-68
2021/03/19 02:27:50;;;;;;;23.63;12.98;;;0.00;99.90;;;;;;5092535;28;20043;-66
2021/03/19 02:30:52;;;;;;;21.05;13.82;;;-0.10;99.90;;;;;;5094206;28;20036;-65
2021/03/19 02:33:18;;;;;;;26.10;13.82;;;-0.10;99.90;;;;;;5092195;28;20020;-65
2021/03/19 02:35:56;;;;;;;23.40;13.30;;;-0.10;99.90;;;;;;5094501;28;20440;-65
2021/03/19 02:38:22;;;;;;;23.58;13.50;;;-0.10;99.90;;;;;;5104157;28;20028;-66
2021/03/19 02:40:48;;;;;;;19.83;13.05;;;0.00;99.90;;;;;;5091435;28;20032;-64
2021/03/19 02:43:16;;;;;;;22.17;14.48;;;0.00;99.90;;;;;;5104367;28;20469;-64
2021/03/19 02:45:41;;;;;;;20.05;12.95;;;0.00;99.90;;;;;;5104082;28;20024;-66
2021/03/19 02:48:09;;;;;;;19.67;12.32;;;0.10;99.90;;;;;;5108259;28;20036;-66
2021/03/19 02:50:35;;;;;;;22.30;12.65;;;0.10;99.90;;;;;;5104847;28;20074;-67
2021/03/19 02:53:00;;;;;;;20.92;13.48;;;0.10;99.90;;;;;;5103898;28;20434;-66
2021/03/19 02:55:26;;;;;;;22.80;12.85;;;0.20;99.90;;;;;;5093264;28;20055;-68
2021/03/19 02:57:52;;;;;;;22.77;12.55;;;0.20;99.90;;;;;;5092382;28;20436;-65
2021/03/19 03:00:22;;;;;;;20.75;13.75;;;0.20;99.90;;;;;;5092179;28;20453;-64
2021/03/19 03:02:48;;;;;;;29.58;15.70;;;0.20;99.90;;;;;;5091231;28;20052;-67
2021/03/19 03:05:15;;;;;;;23.20;14.40;;;0.20;99.90;;;;;;5100149;28;20024;-65
2021/03/19 03:07:40;;;;;;;25.02;14.43;;;0.20;99.90;;;;;;5097137;28;20035;-66
2021/03/19 03:10:10;;;;;;;24.92;14.93;;;0.20;99.90;;;;;;5110465;28;20030;-64
2021/03/19 03:12:35;;;;;;;25.90;14.43;;;0.30;99.90;;;;;;5091215;28;20052;-66
2021/03/19 03:15:01;;;;;;;22.73;13.23;;;0.30;99.90;;;;;;5107425;28;20487;-65
2021/03/19 03:17:27;;;;;;;21.83;13.73;;;0.30;99.90;;;;;;5110950;28;20119;-67
2021/03/19 03:19:53;;;;;;;26.08;14.20;;;0.30;99.90;;;;;;5111177;28;20030;-65
2021/03/19 03:22:19;;;;;;;26.33;14.32;;;0.30;99.90;;;;;;5111293;28;20015;-64
2021/03/19 03:24:44;;;;;;;21.48;12.82;;;0.30;99.90;;;;;;5092161;28;20025;-66
2021/03/19 03:27:10;;;;;;;23.13;13.55;;;0.30;99.90;;;;;;5096338;28;20031;-65
2021/03/19 03:29:37;;;;;;;21.17;12.57;;;0.30;99.90;;;;;;5104734;28;20100;-66
2021/03/19 03:32:03;;;;;;;22.52;13.02;;;0.30;99.90;;;;;;5094108;28;20085;-66
2021/03/19 03:34:30;;;;;;;19.65;12.65;;;0.30;99.90;;;;;;5110792;28;20449;-67
2021/03/19 03:36:56;;;;;;;20.35;13.00;;;0.30;99.90;;;;;;5092654;28;20489;-65
2021/03/19 03:39:25;;;;;;;19.15;13.38;;;0.30;99.90;;;;;;5108167;28;20098;-64
2021/03/19 03:41:52;;;;;;;19.52;11.95;;;0.30;99.90;;;;;;5091055;28;20024;-66
2021/03/19 03:44:19;;;;;;;25.00;14.13;;;0.40;99.90;;;;;;5093046;28;20039;-65
2021/03/19 03:46:45;;;;;;;23.55;14.43;;;0.40;99.90;;;;;;5099939;28;20472;-65
2021/03/19 03:49:13;;;;;;;22.38;13.75;;;0.40;99.90;;;;;;5094674;28;20036;-64
2021/03/19 03:51:39;;;;;;;19.42;13.85;;;0.40;99.90;;;;;;5100355;28;20111;-64
2021/03/19 03:54:05;;;;;;;21.38;13.70;;;0.50;99.90;;;;;;5101321;28;20463;-66
2021/03/19 03:56:31;;;;;;;20.83;13.77;;;0.50;99.90;;;;;;5110362;28;20051;-68
2021/03/19 03:58:57;;;;;;;22.30;13.88;;;0.50;99.90;;;;;;5095315;28;20038;-66
2021/03/19 04:01:24;;;;;;;21.45;13.55;;;0.50;99.90;;;;;;5099568;28;20469;-63
2021/03/19 04:03:50;;;;;;;22.65;13.77;;;0.60;99.90;;;;;;5072514;28;20023;-65
2021/03/19 04:06:16;;;;;;;25.92;14.35;;;0.50;99.90;;;;;;5108473;28;20414;-65
2021/03/19 04:08:42;;;;;;;25.13;15.38;;;0.50;99.90;;;;;;5100294;28;20031;-66
2021/03/19 04:11:14;;;;;;;19.70;14.27;;;0.60;99.90;;;;;;5106551;28;20020;-64
2021/03/19 04:13:40;;;;;;;22.48;14.23;;;0.60;99.90;;;;;;5108726;28;20418;-65
2021/03/19 04:16:07;;;;;;;25.48;14.38;;;0.60;99.90;;;;;;5103939;28;20135;-64
2021/03/19 04:18:33;;;;;;;20.98;13.90;;;0.60;99.90;;;;;;5084258;28;20037;-66
2021/03/19 04:21:06;;;;;;;27.48;15.13;;;0.60;99.90;;;;;;5091026;28;20035;-66
2021/03/19 04:23:32;;;;;;;21.92;13.52;;;0.60;99.90;;;;;;5099985;28;20077;-66
2021/03/19 04:25:58;;;;;;;22.38;14.55;;;0.60;99.90;;;;;;5091341;28;20537;-66
2021/03/19 04:28:31;;;;;;;28.27;15.73;;;0.60;99.90;;;;;;5091099;28;20073;-64
2021/03/19 04:30:57;;;;;;;28.63;15.57;;;0.60;99.90;;;;;;5100173;28;20024;-67
2021/03/19 04:33:24;;;;;;;25.13;15.35;;;0.60;99.90;;;;;;5093862;28;20384;-64
2021/03/19 04:35:59;;;;;;;23.30;15.45;;;0.60;99.90;;;;;;5094715;28;20040;-63
2021/03/19 04:38:24;;;;;;;22.73;14.70;;;0.60;99.90;;;;;;5094751;28;20043;-65
2021/03/19 04:40:50;;;;;;;27.42;16.23;;;0.60;99.90;;;;;;5092763;28;20611;-64
2021/03/19 04:43:16;;;;;;;25.90;16.73;;;0.60;99.90;;;;;;5093243;28;20465;-66
2021/03/19 04:45:45;;;;;;;25.13;15.60;;;0.60;99.90;;;;;;5094119;28;20384;-64
2021/03/19 04:48:10;;;;;;;27.50;15.20;;;0.60;99.90;;;;;;5094467;28;20032;-65
2021/03/19 04:50:36;;;;;;;27.45;16.20;;;0.60;99.90;;;;;;5075231;28;20024;-64
2021/03/19 04:53:03;;;;;;;23.83;15.80;;;0.60;99.90;;;;;;5092941;28;20043;-66
2021/03/19 04:55:28;;;;;;;22.50;14.43;;;0.60;99.90;;;;;;5093091;28;20036;-67
2021/03/19 04:57:54;;;;;;;21.95;14.68;;;0.60;99.90;;;;;;5094596;28;20480;-66
2021/03/19 05:00:22;;;;;;;22.95;15.80;;;0.60;99.90;;;;;;5076094;28;20031;-68
2021/03/19 05:02:49;;;;;;;22.25;15.10;;;0.50;99.90;;;;;;5094942;28;20762;-66
2021/03/19 05:05:25;;;;;;;25.88;15.75;;;0.60;99.90;;;;;;5095873;28;20511;-64
2021/03/19 05:07:51;;;;;;;22.58;14.63;;;0.50;99.90;;;;;;5093563;28;20638;-66
2021/03/19 05:10:19;;;;;;;26.30;16.08;;;0.50;99.90;;;;;;5093522;28;20028;-66
2021/03/19 05:12:45;;;;;;;20.80;14.35;;;0.50;99.90;;;;;;5078325;28;20031;-67
2021/03/19 05:15:11;;;;;;;21.73;14.05;;;0.50;99.90;;;;;;5092863;28;20039;-66
2021/03/19 05:17:37;;;;;;;21.33;13.93;;;0.50;99.90;;;;;;5094050;28;20083;-64
2021/03/19 05:20:06;;;;;;;22.35;14.77;;;0.50;99.90;;;;;;5090700;28;20061;-68
2021/03/19 05:22:32;;;;;;;24.33;16.05;;;0.50;99.90;;;;;;5093452;28;20377;-69
2021/03/19 05:24:58;;;;;;;27.40;15.38;;;0.50;99.90;;;;;;5093407;28;20032;-66
2021/03/19 05:27:25;;;;;;;24.73;15.35;;;0.50;99.90;;;;;;5092039;28;20540;-64
2021/03/19 05:29:53;;;;;;;26.33;15.48;;;0.50;99.90;;;;;;5091596;28;20097;-66
2021/03/19 05:32:19;;;;;;;23.85;14.60;;;0.50;99.90;;;;;;5093683;28;20020;-65
2021/03/19 05:34:45;;;;;;;25.30;15.63;;;0.60;99.90;;;;;;5094372;28;20457;-65
2021/03/19 05:37:11;;;;;;;28.05;16.05;;;0.60;99.90;;;;;;5093752;28;20047;-66
2021/03/19 05:39:37;;;;;;;25.33;16.25;;;0.60;99.90;;;;;;5075595;28;20028;-67
2021/03/19 05:42:03;;;;;;;24.85;15.73;;;0.60;99.90;;;;;;5095435;28;20036;-66
2021/03/19 05:44:28;;;;;;;24.08;15.05;;;0.60;99.90;;;;;;5092681;28;20477;-69
2021/03/19 05:47:05;;;;;;;22.88;15.23;;;0.60;99.90;;;;;;5091930;28;20021;-66
2021/03/19 05:49:33;;;;;;;31.92;15.68;;;0.60;99.90;;;;;;5093663;28;20058;-68
2021/03/19 05:52:00;;;;;;;22.20;14.63;;;0.60;99.90;;;;;;5091760;28;20439;-66
2021/03/19 05:54:27;;;;;;;23.30;14.68;;;0.60;99.90;;;;;;5091521;28;20044;-66
2021/03/19 05:57:04;;;;;;;24.38;15.80;;;0.60;99.90;;;;;;5092399;28;20052;-67
2021/03/19 05:59:44;;;;;;;22.75;14.60;;;0.60;99.90;;;;;;5074190;28;20024;-69
2021/03/19 06:02:27;;;;;;;27.33;16.05;;;0.70;99.90;;;;;;5090986;28;20049;-64
2021/03/19 06:05:06;;;;;;;25.20;16.63;;;0.70;99.90;;;;;;5094132;28;20039;-66
2021/03/19 06:07:57;;;;;;;27.77;17.30;;;0.80;99.90;;;;;;5093611;28;20051;-68
2021/03/19 06:10:31;;;;;;;28.35;17.73;;;0.80;99.90;;;;;;5089899;28;20051;-66
2021/03/19 06:13:20;;;;;;;26.75;17.10;;;0.90;99.90;;;;;;5092362;28;20408;-66
2021/03/19 06:15:48;;;;;;;27.48;16.38;;;1.00;99.90;;;;;;5070780;28;20411;-65
2021/03/19 06:18:22;;;;;;;22.15;15.65;;;1.10;99.90;;;;;;5094110;28;20110;-66
2021/03/19 06:21:15;;;;;;;25.52;16.88;;;1.10;99.90;;;;;;5092653;28;20059;-65
2021/03/19 06:24:07;;;;;;;26.80;16.98;;;1.10;99.90;;;;;;5081303;28;20067;-66
2021/03/19 06:26:37;;;;;;;33.40;17.52;;;1.20;99.90;;;;;;5090288;28;20497;-67
2021/03/19 06:29:28;;;;;;;28.08;17.65;;;1.20;99.90;;;;;;5090257;28;20040;-66
2021/03/19 06:32:13;;;;;;;25.27;17.52;;;1.20;99.90;;;;;;5089892;28;20108;-66
2021/03/19 06:35:10;;;;;;;31.90;20.65;;;1.20;99.90;;;;;;5088227;28;20035;-67
2021/03/19 06:37:41;;;;;;;31.95;19.65;;;1.20;99.90;;;;;;5073528;28;20024;-66
2021/03/19 06:40:35;;;;;;;38.42;21.17;;;1.20;99.90;;;;;;5095270;28;20081;-64
2021/03/19 06:43:32;;;;;;;34.65;20.50;;;1.10;99.90;;;;;;5102654;28;21505;-66
2021/03/19 06:46:31;;;;;;;34.38;20.73;;;1.10;99.90;;;;;;5052015;28;20039;-64
2021/03/19 06:48:56;;;;;;;32.28;21.10;;;1.10;99.90;;;;;;5111251;28;20031;-65
2021/03/19 06:51:43;;;;;;;35.05;21.92;;;1.00;99.90;;;;;;5111984;28;20487;-65
2021/03/19 06:54:11;;;;;;;35.80;21.50;;;1.00;99.90;;;;;;5102600;28;20035;-62
2021/03/19 06:56:39;;;;;;;39.25;23.02;;;1.00;99.90;;;;;;5091910;28;20051;-62
2021/03/19 06:59:26;;;;;;;33.83;22.58;;;1.00;99.90;;;;;;5111614;28;20391;-62
2021/03/19 07:01:52;;;;;;;41.10;24.10;;;1.00;99.90;;;;;;5099125;28;20027;-61
2021/03/19 07:04:42;;;;;;;34.13;22.58;;;1.10;99.90;;;;;;5076777;28;20080;-64
2021/03/19 07:07:28;;;;;;;32.63;22.13;;;1.30;99.90;;;;;;5111216;28;20030;-62
2021/03/19 07:10:09;;;;;;;35.45;23.38;;;1.30;99.90;;;;;;5086157;28;20124;-62
2021/03/19 07:13:07;;;;;;;38.10;23.92;;;1.30;99.90;;;;;;5110147;28;20030;-63
2021/03/19 07:15:49;;;;;;;35.17;22.75;;;1.30;99.90;;;;;;5101313;28;20079;-67
2021/03/19 07:18:39;;;;;;;35.42;23.40;;;1.40;99.90;;;;;;5091764;28;20066;-63
2021/03/19 07:21:46;;;;;;;33.28;23.92;;;1.30;99.90;;;;;;5093050;28;20085;-63
2021/03/19 07:24:41;;;;;;;31.33;23.10;;;1.40;99.90;;;;;;5100992;28;20103;-63
2021/03/19 07:27:27;;;;;;;34.22;21.48;;;1.50;99.90;;;;;;5084745;28;20034;-63
2021/03/19 07:30:18;;;;;;;32.70;21.98;;;1.60;99.90;;;;;;5091100;28;20527;-63
2021/03/19 07:33:03;;;;;;;33.45;21.85;;;1.50;99.90;;;;;;5084876;28;20035;-67
2021/03/19 07:36:00;;;;;;;39.55;22.65;;;1.50;99.90;;;;;;5104787;28;20477;-64
2021/03/19 07:38:40;;;;;;;30.25;20.65;;;1.60;99.90;;;;;;5107700;28;20465;-63
2021/03/19 07:41:53;;;;;;;33.20;21.52;;;1.60;99.90;;;;;;5100773;28;20102;-63
2021/03/19 07:44:58;;;;;;;38.28;23.05;;;1.60;99.90;;;;;;5102666;28;20020;-62
2021/03/19 07:47:53;;;;;;;35.97;22.70;;;1.60;99.90;;;;;;5099622;28;20032;-62
2021/03/19 07:50:31;;;;;;;36.97;23.92;;;1.60;99.90;;;;;;5101193;28;20110;-63
2021/03/19 07:53:10;;;;;;;41.40;24.70;;;1.60;99.90;;;;;;5096759;28;20059;-63
2021/03/19 07:56:02;;;;;;;36.90;23.45;;;1.60;99.90;;;;;;5082332;28;20054;-64
2021/03/19 07:58:34;;;;;;;37.50;25.50;;;1.60;99.90;;;;;;5111028;28;20040;-63
2021/03/19 08:01:18;;;;;;;38.13;25.10;;;1.70;99.90;;;;;;5107627;28;20103;-63
2021/03/19 08:03:49;;;;;;;32.58;21.90;;;1.70;99.90;;;;;;5071398;28;20028;-63
2021/03/19 08:06:31;;;;;;;33.00;21.58;;;1.90;99.90;;;;;;5102682;28;20348;-65
2021/03/19 08:09:26;;;;;;;36.97;22.55;;;2.00;99.90;;;;;;5093490;28;20472;-64
2021/03/19 08:12:06;;;;;;;28.25;19.52;;;2.00;99.90;;;;;;5040968;28;20249;-64
2021/03/19 08:14:34;;;;;;;28.17;18.90;;;2.20;99.90;;;;;;5109549;28;20444;-66
2021/03/19 08:17:29;;;;;;;24.80;16.05;;;2.20;99.90;;;;;;5102211;28;20396;-64
2021/03/19 08:20:13;;;;;;;26.15;16.08;;;2.30;99.90;;;;;;5079326;28;20059;-65
2021/03/19 08:23:07;;;;;;;21.80;13.95;;;2.30;99.90;;;;;;5080119;28;20476;-67
2021/03/19 08:25:39;;;;;;;22.48;14.55;;;2.40;99.90;;;;;;5087619;28;20035;-65
2021/03/19 08:28:18;;;;;;;26.23;14.82;;;2.50;99.90;;;;;;5112934;28;20059;-61
2021/03/19 08:31:21;;;;;;;21.73;14.63;;;2.40;99.90;;;;;;5111450;28;20028;-60
2021/03/19 08:34:23;;;;;;;20.63;14.63;;;2.40;99.90;;;;;;5095146;28;20032;-61
2021/03/19 08:36:51;;;;;;;29.73;15.65;;;2.40;99.90;;;;;;5103769;28;20498;-61
2021/03/19 08:39:40;;;;;;;21.45;14.75;;;2.30;99.90;;;;;;5101092;28;20032;-61
2021/03/19 08:42:10;;;;;;;21.95;14.02;;;2.30;99.90;;;;;;5095697;28;20073;-61
2021/03/19 08:44:39;;;;;;;24.73;15.65;;;2.30;99.90;;;;;;5101861;28;20051;-64
2021/03/19 08:47:26;;;;;;;25.05;15.82;;;2.30;99.90;;;;;;5093449;28;20081;-61
2021/03/19 08:49:58;;;;;;;22.70;15.82;;;2.30;99.90;;;;;;5101382;28;20032;-61
2021/03/19 08:52:35;;;;;;;24.85;16.33;;;2.40;99.90;;;;;;5110859;28;20491;-61
2021/03/19 08:55:16;;;;;;;27.45;16.92;;;2.40;99.90;;;;;;5102288;28;20403;-60
2021/03/19 08:57:45;;;;;;;24.27;16.05;;;2.40;99.90;;;;;;5113210;28;20055;-61
2021/03/19 09:00:11;;;;;;;24.10;16.60;;;2.40;99.90;;;;;;5105885;28;20016;-61
2021/03/19 09:02:52;;;;;;;23.05;14.98;;;2.40;99.90;;;;;;5111998;28;20020;-64
2021/03/19 09:05:26;;;;;;;23.58;15.27;;;2.40;99.90;;;;;;5106605;28;20357;-63
2021/03/19 09:08:27;;;;;;;22.20;15.43;;;2.40;99.90;;;;;;5097697;28;20027;-60
2021/03/19 09:10:53;;;;;;;24.40;15.88;;;2.30;99.90;;;;;;5086052;28;20043;-62
2021/03/19 09:13:21;;;;;;;27.85;18.02;;;2.30;99.90;;;;;;5107144;28;20089;-62
2021/03/19 09:15:49;;;;;;;28.70;17.02;;;2.40;99.90;;;;;;5101418;28;20024;-60
2021/03/19 09:18:36;;;;;;;26.08;17.48;;;2.40;99.90;;;;;;5106134;28;20115;-61
2021/03/19 09:21:09;;;;;;;25.60;17.20;;;2.40;99.90;;;;;;5096046;28;20127;-62
2021/03/19 09:23:53;;;;;;;25.48;17.05;;;2.40;99.90;;;;;;5111208;28;20037;-64
2021/03/19 09:26:29;;;;;;;23.90;15.85;;;2.50;99.90;;;;;;5113624;28;20157;-62
2021/03/19 09:29:23;;;;;;;23.77;15.88;;;2.50;99.90;;;;;;5103263;28;20040;-61
2021/03/19 09:31:55;;;;;;;23.95;16.33;;;2.50;99.90;;;;;;5099623;28;20035;-61
2021/03/19 09:34:46;;;;;;;27.98;17.20;;;2.60;99.90;;;;;;5082210;28;20469;-62
2021/03/19 09:37:31;;;;;;;23.02;15.80;;;2.60;99.90;;;;;;5101393;28;20024;-61
2021/03/19 09:40:01;;;;;;;23.75;16.85;;;2.60;99.90;;;;;;5097070;28;20319;-60
2021/03/19 09:42:27;;;;;;;20.15;14.02;;;2.70;99.90;;;;;;5105111;28;20024;-61
2021/03/19 09:45:13;;;;;;;19.90;13.88;;;2.70;99.90;;;;;;5100011;28;20028;-62
2021/03/19 09:47:43;;;;;;;19.85;14.25;;;2.90;99.90;;;;;;5092600;28;20036;-64
2021/03/19 09:50:26;;;;;;;17.60;11.82;;;3.00;99.90;;;;;;5104119;28;20028;-62
2021/03/19 09:52:56;;;;;;;15.32;11.52;;;3.20;99.00;;;;;;5103729;28;20068;-61
2021/03/19 09:55:25;;;;;;;16.70;12.00;;;3.30;99.00;;;;;;5075196;28;20073;-62
2021/03/19 09:57:52;;;;;;;14.60;10.60;;;3.40;97.70;;;;;;5080245;28;20055;-63
2021/03/19 10:00:29;;;;;;;14.52;10.20;;;3.50;96.80;;;;;;5102273;28;20658;-62
2021/03/19 10:03:09;;;;;;;15.70;10.85;;;3.60;96.20;;;;;;5097264;28;20023;-62
2021/03/19 10:05:42;;;;;;;14.40;10.02;;;3.70;96.80;;;;;;5084466;28;20473;-62
2021/03/19 10:08:22;;;;;;;14.75;9.98;;;3.90;97.30;;;;;;5101956;28;20028;-62
2021/03/19 10:10:48;;;;;;;;;;;4.30;94.00;;;;;;5100513;28;20076;-60
2021/03/19 10:13:17;;;;;;;14.07;10.60;;;4.60;91.30;;;;;;5092847;28;19912;-62
2021/03/19 10:15:52;;;;;;;13.63;10.02;;;4.80;89.10;;;;;;5108396;28;20034;-62
2021/03/19 10:18:30;;;;;;;11.57;9.13;;;5.00;87.40;;;;;;5092660;28;20156;-62
2021/03/19 10:21:11;;;;;;;12.88;9.60;;;5.10;86.50;;;;;;5094200;28;20036;-62
2021/03/19 10:23:41;;;;;;;13.88;9.77;;;5.10;84.60;;;;;;5095941;28;20039;-64
2021/03/19 10:26:26;;;;;;;13.25;9.88;;;5.10;82.90;;;;;;5093965;28;20031;-61
2021/03/19 10:29:12;;;;;;;13.90;10.38;;;4.90;85.00;;;;;;5104091;28;20047;-62
2021/03/19 10:31:44;;;;;;;12.00;9.15;;;4.90;86.70;;;;;;5068016;28;20028;-63
2021/03/19 10:34:22;;;;;;;12.55;8.35;;;4.70;85.00;;;;;;5092627;28;20084;-62
2021/03/19 10:36:57;;;;;;;12.90;9.30;;;4.50;88.40;;;;;;5095665;28;20027;-61
2021/03/19 10:39:58;;;;;;;14.25;10.13;;;4.10;91.00;;;;;;5091819;28;20037;-61
2021/03/19 10:42:41;;;;;;;15.63;11.13;;;3.70;94.90;;;;;;5067451;28;20472;-61
2021/03/19 10:45:38;;;;;;;15.13;10.70;;;3.40;98.70;;;;;;5098520;28;20051;-61
2021/03/19 10:48:09;;;;;;;18.15;12.38;;;3.20;99.90;;;;;;5087036;28;20028;-62
2021/03/19 10:50:54;;;;;;;18.70;13.02;;;3.00;99.90;;;;;;5107408;28;20469;-60
2021/03/19 10:53:41;;;;;;;17.20;11.48;;;3.00;99.90;;;;;;5100614;28;20034;-62
2021/03/19 10:56:08;;;;;;;16.27;11.40;;;2.90;99.90;;;;;;5112183;28;20024;-61
2021/03/19 10:58:36;;;;;;;18.42;11.63;;;2.80;99.90;;;;;;5085084;28;20381;-61
2021/03/19 11:01:34;;;;;;;15.68;11.38;;;2.90;99.90;;;;;;5111014;28;20039;-61
2021/03/19 11:04:02;;;;;;;17.02;11.40;;;3.10;99.90;;;;;;5102141;28;20035;-61
2021/03/19 11:06:39;;;;;;;14.68;10.50;;;3.20;99.90;;;;;;5111769;28;20461;-61
2021/03/19 11:09:17;;;;;;;11.20;8.52;;;3.30;99.90;;;;;;5111273;28;20032;-61
2021/03/19 11:11:46;;;;;;;10.70;8.15;;;3.30;99.90;;;;;;5094522;28;20036;-62
2021/03/19 11:14:15;;;;;;;5.82;4.78;;;3.30;99.90;;;;;;5091872;28;20051;-61
2021/03/19 11:16:45;;;;;;;6.65;5.00;;;3.50;95.80;;;;;;5092710;28;20032;-63
2021/03/19 11:19:15;;;;;;;;;;;3.50;94.80;;;;;;5093747;28;20487;-60
2021/03/19 11:21:43;;;;;;;11.75;4.97;;;3.60;94.50;;;;;;5091247;28;19908;-63
2021/03/19 11:24:25;;;;;;;5.90;4.68;;;3.70;96.00;;;;;;5093322;28;20366;-59
2021/03/19 11:26:59;;;;;;;9.80;4.93;;;3.70;95.60;;;;;;5110778;28;20032;-61
2021/03/19 11:29:29;;;;;;;6.05;5.05;;;3.40;99.20;;;;;;5082645;28;20032;-62
2021/03/19 11:32:00;;;;;;;;;;;3.20;99.30;;;;;;5097103;28;20019;-60
2021/03/19 11:34:32;;;;;;;6.15;4.32;;;3.00;98.50;;;;;;5096834;28;19951;-61
2021/03/19 11:37:27;;;;;;;6.72;5.20;;;3.00;95.70;;;;;;5090655;28;20020;-63
2021/03/19 11:40:24;;;;;;;7.97;5.05;;;3.10;98.10;;;;;;5090180;28;20052;-63
2021/03/19 11:42:52;;;;;;;9.20;5.68;;;3.10;94.00;;;;;;5113729;28;20019;-57
2021/03/19 11:45:25;;;;;;;7.85;5.38;;;3.20;95.00;;;;;;5111699;28;20024;-63
2021/03/19 11:47:56;;;;;;;9.50;5.78;;;3.30;95.20;;;;;;5111022;28;20182;-54
2021/03/19 11:50:22;;;;;;;8.27;5.95;;;3.60;93.40;;;;;;5115532;28;20034;-61
2021/03/19 11:53:00;;;;;;;8.07;5.53;;;3.70;90.70;;;;;;5105982;28;20036;-60
2021/03/19 11:55:38;;;;;;;7.53;5.75;;;3.80;90.10;;;;;;5109868;28;20099;-61
2021/03/19 11:58:04;;;;;;;10.32;6.43;;;3.70;89.30;;;;;;5104796;28;20052;-61
2021/03/19 12:00:32;;;;;;;7.43;5.78;;;3.70;91.30;;;;;;5110315;28;20028;-62
2021/03/19 12:03:02;;;;;;;9.32;6.13;;;3.70;89.00;;;;;;5093589;28;20028;-63
2021/03/19 12:05:30;;;;;;;11.30;7.35;;;3.50;88.30;;;;;;5094323;28;20445;-62
2021/03/19 12:07:56;;;;;;;10.23;7.05;;;3.40;91.80;;;;;;5100920;28;20035;-59
2021/03/19 12:10:27;;;;;;;13.00;8.20;;;3.30;91.50;;;;;;5096249;28;20028;-56
2021/03/19 12:12:53;;;;;;;12.25;7.43;;;3.30;92.50;;;;;;5094320;28;20032;-60
2021/03/19 12:15:19;;;;;;;11.07;7.63;;;3.30;92.00;;;;;;5090770;28;20547;-53
2021/03/19 12:17:46;;;;;;;10.73;7.55;;;3.30;89.80;;;;;;5113800;28;20036;-57
2021/03/19 12:20:13;;;;;;;12.13;8.52;;;3.20;90.70;;;;;;5114414;28;20066;-63
2021/03/19 12:22:41;;;;;;;13.38;8.35;;;3.20;90.50;;;;;;5095105;28;20032;-64
2021/03/19 12:25:08;;;;;;;14.05;8.93;;;3.20;92.00;;;;;;5094407;28;20028;-60
2021/03/19 12:27:34;;;;;;;12.65;8.88;;;3.30;91.40;;;;;;5094698;28;20040;-61
2021/03/19 12:30:00;;;;;;;13.23;8.40;;;3.30;91.40;;;;;;5097963;28;20085;-62
2021/03/19 12:32:25;;;;;;;12.02;8.40;;;3.30;88.60;;;;;;5100310;28;20329;-62
2021/03/19 12:34:51;;;;;;;13.82;8.95;;;3.30;91.00;;;;;;5096367;28;20460;-62
2021/03/19 12:37:17;;;;;;;13.75;9.57;;;3.30;89.70;;;;;;5092718;28;20456;-64
2021/03/19 12:39:43;;;;;;;16.85;10.27;;;3.30;89.00;;;;;;5113992;28;20031;-64
2021/03/19 12:42:08;;;;;;;17.48;10.25;;;3.30;88.70;;;;;;5087398;28;20031;-63
2021/03/19 12:44:34;;;;;;;15.38;10.27;;;3.30;88.90;;;;;;5097075;28;20372;-61
2021/03/19 12:47:00;;;;;;;15.93;10.50;;;3.20;89.10;;;;;;5107771;28;20655;-60
2021/03/19 12:49:27;;;;;;;18.38;10.25;;;3.20;89.70;;;;;;5113799;28;20053;-61
2021/03/19 12:51:52;;;;;;;19.60;11.82;;;3.10;90.20;;;;;;5112129;28;20392;-60
2021/03/19 12:54:19;;;;;;;21.48;12.80;;;3.10;91.90;;;;;;5112329;28;20020;-64
2021/03/19 12:56:45;;;;;;;21.75;13.50;;;3.10;92.20;;;;;;5110945;28;20047;-60
2021/03/19 12:59:10;;;;;;;21.85;12.35;;;3.00;92.30;;;;;;5100774;28;20032;-62
2021/03/19 13:01:36;;;;;;;22.67;13.00;;;2.80;91.70;;;;;;5093616;28;20028;-60
2021/03/19 13:04:02;;;;;;;22.20;12.57;;;2.80;92.60;;;;;;5096382;28;20110;-61
2021/03/19 13:06:28;;;;;;;21.25;12.80;;;2.80;92.80;;;;;;5098492;28;20028;-62
2021/03/19 13:08:54;;;;;;;25.75;14.15;;;2.70;94.10;;;;;;5102228;28;20039;-62
2021/03/19 13:11:21;;;;;;;24.13;14.35;;;2.70;95.40;;;;;;5108797;28;20480;-61
2021/03/19 13:13:47;;;;;;;24.33;13.82;;;2.80;95.50;;;;;;5093143;28;20159;-63
2021/03/19 13:16:13;;;;;;;23.77;14.13;;;2.80;96.00;;;;;;5113154;28;20032;-61
2021/03/19 13:18:39;;;;;;;26.35;14.35;;;2.80;96.70;;;;;;5104607;28;20046;-61